createdAt,value
2023-03-15T00:00:23.915Z,5.69
2023-03-15T00:01:23.882Z,5.70
2023-03-15T00:02:23.932Z,5.72
2023-03-15T00:03:23.239Z,5.75
2023-03-15T00:04:23.182Z,5.77
2023-03-15T00:05:23.861Z,5.80
2023-03-15T00:06:23.823Z,5.82
2023-03-15T00:07:25.118Z,5.85
2023-03-15T00:08:23.821Z,5.87
2023-03-15T00:09:24.082Z,5.89
2023-03-15T00:10:25.042Z,5.91
2023-03-15T00:11:24.070Z,5.92
2023-03-15T00:12:23.786Z,5.93
2023-03-15T00:13:23.085Z,5.94
2023-03-15T00:14:23.764Z,5.94
2023-03-15T00:15:23.060Z,5.94
2023-03-15T00:16:23.061Z,5.93
2023-03-15T00:17:23.723Z,5.92
2023-03-15T00:18:23.715Z,5.90
2023-03-15T00:19:23.706Z,5.88
2023-03-15T00:20:23.030Z,5.84
2023-03-15T00:21:23.685Z,5.83
2023-03-15T00:22:22.991Z,5.81
2023-03-15T00:23:23.675Z,5.78
2023-03-15T00:24:25.184Z,5.77
2023-03-15T00:25:23.643Z,5.73
2023-03-15T00:26:23.614Z,5.73
2023-03-15T00:27:23.625Z,5.70
2023-03-15T00:28:22.933Z,5.69
2023-03-15T00:29:23.594Z,5.65
2023-03-15T00:30:23.585Z,5.64
2023-03-15T00:31:23.644Z,5.62
2023-03-15T00:32:23.608Z,5.60
2023-03-15T00:33:22.866Z,5.58
2023-03-15T00:34:23.556Z,5.56
2023-03-15T00:35:23.557Z,5.54
2023-03-15T00:36:22.885Z,5.51
2023-03-15T00:37:23.518Z,5.49
2023-03-15T00:38:23.507Z,5.46
2023-03-15T00:39:24.756Z,5.44
2023-03-15T00:40:23.491Z,5.41
2023-03-15T00:41:23.465Z,5.38
2023-03-15T00:42:23.466Z,5.35
2023-03-15T00:43:22.773Z,5.32
2023-03-15T00:44:22.747Z,5.29
2023-03-15T00:45:22.736Z,5.26
2023-03-15T00:46:23.468Z,5.23
2023-03-15T00:47:23.421Z,5.21
2023-03-15T00:48:23.400Z,5.18
2023-03-15T00:49:23.389Z,5.16
2023-03-15T00:50:23.522Z,5.11
2023-03-15T00:51:23.664Z,5.07
2023-03-15T00:52:23.522Z,5.03
2023-03-15T00:53:23.348Z,4.99
2023-03-15T00:54:23.340Z,4.96
2023-03-15T00:55:22.649Z,4.92
2023-03-15T00:56:23.309Z,4.88
2023-03-15T00:57:22.631Z,4.85
2023-03-15T00:58:24.265Z,4.83
2023-03-15T00:59:23.283Z,4.79
2023-03-15T01:00:23.319Z,4.76
2023-03-15T01:01:22.615Z,4.75
2023-03-15T01:02:23.253Z,4.72
2023-03-15T01:03:23.250Z,4.71
2023-03-15T01:04:22.567Z,4.68
2023-03-15T01:05:23.416Z,4.66
2023-03-15T01:06:24.488Z,4.65
2023-03-15T01:07:23.203Z,4.62
2023-03-15T01:08:22.520Z,4.60
2023-03-15T01:09:22.520Z,4.58
2023-03-15T01:10:23.440Z,4.58
2023-03-15T01:11:22.523Z,4.56
2023-03-15T01:12:23.402Z,4.55
2023-03-15T01:13:23.380Z,4.55
2023-03-15T01:14:23.366Z,4.52
2023-03-15T01:15:23.114Z,4.51
2023-03-15T01:16:23.136Z,4.51
2023-03-15T01:17:23.092Z,4.51
2023-03-15T01:18:23.091Z,4.48
2023-03-15T01:19:23.073Z,4.47
2023-03-15T01:20:23.074Z,4.47
2023-03-15T01:21:23.031Z,4.46
2023-03-15T01:22:23.050Z,4.46
2023-03-15T01:23:23.312Z,4.46
2023-03-15T01:24:23.261Z,4.46
2023-03-15T01:25:23.004Z,4.47
2023-03-15T01:26:23.298Z,4.48
2023-03-15T01:27:23.229Z,4.49
2023-03-15T01:28:22.972Z,4.51
2023-03-15T01:29:23.232Z,4.52
2023-03-15T01:30:23.208Z,4.53
2023-03-15T01:31:23.358Z,4.53
2023-03-15T01:32:23.031Z,4.55
2023-03-15T01:33:22.929Z,4.55
2023-03-15T01:34:22.937Z,4.55
2023-03-15T01:35:23.158Z,4.56
2023-03-15T01:36:23.185Z,4.56
2023-03-15T01:37:23.139Z,4.56
2023-03-15T01:38:22.873Z,4.57
2023-03-15T01:39:22.865Z,4.57
2023-03-15T01:40:23.122Z,4.57
2023-03-15T01:41:23.106Z,4.57
2023-03-15T01:42:22.826Z,4.57
2023-03-15T01:43:23.085Z,4.57
2023-03-15T01:44:22.125Z,4.57
2023-03-15T01:45:23.054Z,4.56
2023-03-15T01:46:22.817Z,4.57
2023-03-15T01:47:22.774Z,4.57
2023-03-15T01:48:22.763Z,4.56
2023-03-15T01:49:22.782Z,4.56
2023-03-15T01:50:22.736Z,4.56
2023-03-15T01:51:22.718Z,4.56
2023-03-15T01:52:22.976Z,4.57
2023-03-15T01:53:22.967Z,4.59
2023-03-15T01:54:22.974Z,4.60
2023-03-15T01:55:22.688Z,4.62
2023-03-15T01:56:22.994Z,4.61
2023-03-15T01:57:22.670Z,4.63
2023-03-15T01:58:22.668Z,4.65
2023-03-15T01:59:22.896Z,4.66
2023-03-15T02:00:22.874Z,4.68
2023-03-15T02:01:22.611Z,4.70
2023-03-15T02:02:22.740Z,4.73
2023-03-15T02:03:23.856Z,4.76
2023-03-15T02:04:22.586Z,4.78
2023-03-15T02:05:22.821Z,4.80
2023-03-15T02:06:22.549Z,4.83
2023-03-15T02:07:22.818Z,4.85
2023-03-15T02:08:22.565Z,4.86
2023-03-15T02:09:22.811Z,4.88
2023-03-15T02:10:22.521Z,4.89
2023-03-15T02:11:22.498Z,4.91
2023-03-15T02:12:22.752Z,4.91
2023-03-15T02:13:22.787Z,4.93
2023-03-15T02:14:22.502Z,4.95
2023-03-15T02:15:22.729Z,4.96
2023-03-15T02:16:22.489Z,4.97
2023-03-15T02:17:22.695Z,4.98
2023-03-15T02:18:22.444Z,4.98
2023-03-15T02:19:22.435Z,4.99
2023-03-15T02:20:21.751Z,4.99
2023-03-15T02:21:22.673Z,5.00
2023-03-15T02:22:22.636Z,5.00
2023-03-15T02:23:22.640Z,5.02
2023-03-15T02:24:22.386Z,5.05
2023-03-15T02:25:22.654Z,5.05
2023-03-15T02:26:22.641Z,5.06
2023-03-15T02:27:22.651Z,5.08
2023-03-15T02:28:22.598Z,5.08
2023-03-15T02:29:22.600Z,5.10
2023-03-15T02:30:22.593Z,5.10
2023-03-15T02:31:22.662Z,5.12
2023-03-15T02:32:22.376Z,5.13
2023-03-15T02:33:22.285Z,5.14
2023-03-15T02:34:22.534Z,5.16
2023-03-15T02:35:22.529Z,5.17
2023-03-15T02:36:22.236Z,5.17
2023-03-15T02:37:22.241Z,5.17
2023-03-15T02:38:22.481Z,5.18
2023-03-15T02:39:22.218Z,5.18
2023-03-15T02:40:22.489Z,5.19
2023-03-15T02:41:22.475Z,5.18
2023-03-15T02:42:22.186Z,5.18
2023-03-15T02:43:22.454Z,5.18
2023-03-15T02:44:22.163Z,5.19
2023-03-15T02:45:22.446Z,5.19
2023-03-15T02:46:23.484Z,5.19
2023-03-15T02:47:22.377Z,5.19
2023-03-15T02:48:21.447Z,5.20
2023-03-15T02:49:22.110Z,5.20
2023-03-15T02:50:22.109Z,5.20
2023-03-15T02:51:22.358Z,5.19
2023-03-15T02:52:22.127Z,5.18
2023-03-15T02:53:21.395Z,5.18
2023-03-15T02:54:21.382Z,5.18
2023-03-15T02:55:22.049Z,5.19
2023-03-15T02:56:21.389Z,5.19
2023-03-15T02:57:22.310Z,5.19
2023-03-15T02:58:22.010Z,5.21
2023-03-15T02:59:22.014Z,5.21
2023-03-15T03:00:21.997Z,5.22
2023-03-15T03:01:22.290Z,5.23
2023-03-15T03:02:22.001Z,5.23
2023-03-15T03:03:21.975Z,5.24
2023-03-15T03:04:22.231Z,5.25
2023-03-15T03:05:21.960Z,5.26
2023-03-15T03:06:21.924Z,5.27
2023-03-15T03:07:21.271Z,5.27
2023-03-15T03:08:21.911Z,5.27
2023-03-15T03:09:21.264Z,5.27
2023-03-15T03:10:21.893Z,5.27
2023-03-15T03:11:21.855Z,5.26
2023-03-15T03:12:21.216Z,5.26
2023-03-15T03:13:21.853Z,5.26
2023-03-15T03:14:21.846Z,5.26
2023-03-15T03:15:21.841Z,5.25
2023-03-15T03:16:21.847Z,5.24
2023-03-15T03:17:21.809Z,5.24
2023-03-15T03:18:21.134Z,5.25
2023-03-15T03:19:21.798Z,5.24
2023-03-15T03:20:21.784Z,5.24
2023-03-15T03:21:21.742Z,5.24
2023-03-15T03:22:21.751Z,5.24
2023-03-15T03:23:21.142Z,5.25
2023-03-15T03:24:21.050Z,5.25
2023-03-15T03:25:21.741Z,5.26
2023-03-15T03:26:21.690Z,5.26
2023-03-15T03:27:21.712Z,5.26
2023-03-15T03:28:21.709Z,5.25
2023-03-15T03:29:21.689Z,5.26
2023-03-15T03:30:20.999Z,5.25
2023-03-15T03:31:21.693Z,5.24
2023-03-15T03:32:21.673Z,5.25
2023-03-15T03:33:21.638Z,5.24
2023-03-15T03:34:20.954Z,5.24
2023-03-15T03:35:20.948Z,5.24
2023-03-15T03:36:21.600Z,5.24
2023-03-15T03:37:20.954Z,5.24
2023-03-15T03:38:21.579Z,5.24
2023-03-15T03:39:21.833Z,5.26
2023-03-15T03:40:21.559Z,5.25
2023-03-15T03:41:20.889Z,5.25
2023-03-15T03:42:21.520Z,5.26
2023-03-15T03:43:21.523Z,5.25
2023-03-15T03:44:20.832Z,5.26
2023-03-15T03:45:21.508Z,5.26
2023-03-15T03:46:21.516Z,5.28
2023-03-15T03:47:20.813Z,5.29
2023-03-15T03:48:21.469Z,5.29
2023-03-15T03:49:21.473Z,5.29
2023-03-15T03:50:21.459Z,5.30
2023-03-15T03:51:20.749Z,5.30
2023-03-15T03:52:21.410Z,5.30
2023-03-15T03:53:20.876Z,5.29
2023-03-15T03:54:21.425Z,5.29
2023-03-15T03:55:21.396Z,5.29
2023-03-15T03:56:21.394Z,5.29
2023-03-15T03:57:21.367Z,5.28
2023-03-15T03:58:21.373Z,5.27
2023-03-15T03:59:20.703Z,5.27
2023-03-15T04:00:21.363Z,5.28
2023-03-15T04:01:20.653Z,5.28
2023-03-15T04:02:21.401Z,5.29
2023-03-15T04:03:21.313Z,5.30
2023-03-15T04:04:21.344Z,5.31
2023-03-15T04:05:20.624Z,5.31
2023-03-15T04:06:20.624Z,5.32
2023-03-15T04:07:20.631Z,5.33
2023-03-15T04:08:20.583Z,5.32
2023-03-15T04:09:20.632Z,5.34
2023-03-15T04:10:21.242Z,5.33
2023-03-15T04:11:20.572Z,5.34
2023-03-15T04:12:21.246Z,5.34
2023-03-15T04:13:21.204Z,5.36
2023-03-15T04:14:21.198Z,5.35
2023-03-15T04:15:21.183Z,5.35
2023-03-15T04:16:20.608Z,5.34
2023-03-15T04:17:20.560Z,5.34
2023-03-15T04:18:21.027Z,5.34
2023-03-15T04:19:20.534Z,5.35
2023-03-15T04:20:21.166Z,5.35
2023-03-15T04:21:21.144Z,5.35
2023-03-15T04:22:20.903Z,5.35
2023-03-15T04:23:21.104Z,5.35
2023-03-15T04:24:20.524Z,5.35
2023-03-15T04:25:21.091Z,5.35
2023-03-15T04:26:21.074Z,5.34
2023-03-15T04:27:21.034Z,5.35
2023-03-15T04:28:21.056Z,5.34
2023-03-15T04:29:21.045Z,5.34
2023-03-15T04:30:21.040Z,5.33
2023-03-15T04:31:21.055Z,5.32
2023-03-15T04:32:21.047Z,5.33
2023-03-15T04:33:21.001Z,5.32
2023-03-15T04:34:20.311Z,5.32
2023-03-15T04:35:20.980Z,5.33
2023-03-15T04:36:20.983Z,5.32
2023-03-15T04:37:20.297Z,5.30
2023-03-15T04:38:20.361Z,5.29
2023-03-15T04:39:20.253Z,5.27
2023-03-15T04:40:20.257Z,5.25
2023-03-15T04:41:20.919Z,5.23
2023-03-15T04:42:20.885Z,5.20
2023-03-15T04:43:20.895Z,5.18
2023-03-15T04:44:20.885Z,5.16
2023-03-15T04:45:20.208Z,5.14
2023-03-15T04:46:20.224Z,5.12
2023-03-15T04:47:20.846Z,5.12
2023-03-15T04:48:20.167Z,5.11
2023-03-15T04:49:20.843Z,5.10
2023-03-15T04:50:20.829Z,5.08
2023-03-15T04:51:20.818Z,5.07
2023-03-15T04:52:20.150Z,5.06
2023-03-15T04:53:20.803Z,5.05
2023-03-15T04:54:20.105Z,5.03
2023-03-15T04:55:20.090Z,5.02
2023-03-15T04:56:20.325Z,5.00
2023-03-15T04:57:25.679Z,4.98
2023-03-15T04:58:24.653Z,4.96
2023-03-15T04:59:23.681Z,4.95
2023-03-15T05:00:20.723Z,4.94
2023-03-15T05:01:20.705Z,4.92
2023-03-15T05:02:20.745Z,4.90
2023-03-15T05:03:19.999Z,4.89
2023-03-15T05:04:20.678Z,4.87
2023-03-15T05:05:19.999Z,4.85
2023-03-15T05:06:20.657Z,4.84
2023-03-15T05:07:20.629Z,4.83
2023-03-15T05:08:20.632Z,4.82
2023-03-15T05:09:20.619Z,4.81
2023-03-15T05:10:20.608Z,4.80
2023-03-15T05:11:20.599Z,4.81
2023-03-15T05:12:20.582Z,4.81
2023-03-15T05:13:20.588Z,4.83
2023-03-15T05:14:20.560Z,4.83
2023-03-15T05:15:20.845Z,4.84
2023-03-15T05:16:20.554Z,4.81
2023-03-15T05:17:20.523Z,4.80
2023-03-15T05:18:20.534Z,4.79
2023-03-15T05:19:19.877Z,4.79
2023-03-15T05:20:19.813Z,4.77
2023-03-15T05:21:19.826Z,4.77
2023-03-15T05:22:19.841Z,4.77
2023-03-15T05:23:19.781Z,4.76
2023-03-15T05:24:20.451Z,4.77
2023-03-15T05:25:20.465Z,4.77
2023-03-15T05:26:19.760Z,4.78
2023-03-15T05:27:19.765Z,4.78
2023-03-15T05:28:19.766Z,4.78
2023-03-15T05:29:20.403Z,4.77
2023-03-15T05:30:20.393Z,4.77
2023-03-15T05:31:20.435Z,4.76
2023-03-15T05:32:19.714Z,4.76
2023-03-15T05:33:20.382Z,4.77
2023-03-15T05:34:20.372Z,4.76
2023-03-15T05:35:20.446Z,4.77
2023-03-15T05:36:20.343Z,4.78
2023-03-15T05:37:20.313Z,4.76
2023-03-15T05:38:20.313Z,4.76
2023-03-15T05:39:19.651Z,4.75
2023-03-15T05:40:19.612Z,4.73
2023-03-15T05:41:19.640Z,4.72
2023-03-15T05:42:20.244Z,4.70
2023-03-15T05:43:19.613Z,4.68
2023-03-15T05:44:19.553Z,4.67
2023-03-15T05:45:20.238Z,4.66
2023-03-15T05:46:20.239Z,4.65
2023-03-15T05:47:20.205Z,4.64
2023-03-15T05:48:20.212Z,4.63
2023-03-15T05:49:19.503Z,4.61
2023-03-15T05:50:19.498Z,4.60
2023-03-15T05:51:20.173Z,4.59
2023-03-15T05:52:20.145Z,4.58
2023-03-15T05:53:20.157Z,4.59
2023-03-15T05:54:19.469Z,4.59
2023-03-15T05:55:20.138Z,4.59
2023-03-15T05:56:20.113Z,4.59
2023-03-15T05:57:19.461Z,4.59
2023-03-15T05:58:20.101Z,4.60
2023-03-15T05:59:20.086Z,4.61
2023-03-15T06:00:20.102Z,4.61
2023-03-15T06:01:19.392Z,4.61
2023-03-15T06:02:19.400Z,4.62
2023-03-15T06:03:19.388Z,4.62
2023-03-15T06:04:19.423Z,4.63
2023-03-15T06:05:20.032Z,4.65
2023-03-15T06:06:20.003Z,4.67
2023-03-15T06:07:19.338Z,4.69
2023-03-15T06:08:19.996Z,4.71
2023-03-15T06:09:19.982Z,4.72
2023-03-15T06:10:19.963Z,4.75
2023-03-15T06:11:19.273Z,4.77
2023-03-15T06:12:19.927Z,4.78
2023-03-15T06:13:19.289Z,4.82
2023-03-15T06:14:19.264Z,4.85
2023-03-15T06:15:20.011Z,4.86
2023-03-15T06:16:19.985Z,4.89
2023-03-15T06:17:19.877Z,4.92
2023-03-15T06:18:19.213Z,4.95
2023-03-15T06:19:19.195Z,4.97
2023-03-15T06:20:19.206Z,4.99
2023-03-15T06:21:19.862Z,5.03
2023-03-15T06:22:19.814Z,5.07
2023-03-15T06:23:19.823Z,5.09
2023-03-15T06:24:19.124Z,5.14
2023-03-15T06:25:19.131Z,5.20
2023-03-15T06:26:19.137Z,5.25
2023-03-15T06:27:19.770Z,5.31
2023-03-15T06:28:19.774Z,5.38
2023-03-15T06:29:19.763Z,5.46
2023-03-15T06:30:19.115Z,5.54
2023-03-15T06:31:19.168Z,5.63
2023-03-15T06:32:19.080Z,5.72
2023-03-15T06:33:19.714Z,5.81
2023-03-15T06:34:19.704Z,5.90
2023-03-15T06:35:19.700Z,5.98
2023-03-15T06:36:19.005Z,6.07
2023-03-15T06:37:29.148Z,6.15
2023-03-15T06:38:21.907Z,6.23
2023-03-15T06:39:19.688Z,6.35
2023-03-15T06:40:19.649Z,6.53
2023-03-15T06:41:18.941Z,6.68
2023-03-15T06:42:18.946Z,6.83
2023-03-15T06:43:18.946Z,6.98
2023-03-15T06:44:19.598Z,7.23
2023-03-15T06:45:19.594Z,7.47
2023-03-15T06:46:19.590Z,7.71
2023-03-15T06:47:18.917Z,7.95
2023-03-15T06:48:18.870Z,8.23
2023-03-15T06:49:18.873Z,8.53
2023-03-15T06:50:19.557Z,8.83
2023-03-15T06:51:19.543Z,9.15
2023-03-15T06:52:19.518Z,9.51
2023-03-15T06:53:18.810Z,9.86
2023-03-15T06:54:19.502Z,10.18
2023-03-15T06:55:19.488Z,10.49
2023-03-15T06:56:18.818Z,10.86
2023-03-15T06:57:19.466Z,11.25
2023-03-15T06:58:19.461Z,11.62
2023-03-15T06:59:18.758Z,11.99
2023-03-15T07:00:19.434Z,12.38
2023-03-15T07:01:18.840Z,12.73
2023-03-15T07:02:19.449Z,13.09
2023-03-15T07:03:19.422Z,13.40
2023-03-15T07:04:19.446Z,13.69
2023-03-15T07:05:19.399Z,13.99
2023-03-15T07:06:18.697Z,14.31
2023-03-15T07:07:19.344Z,14.60
2023-03-15T07:08:19.347Z,14.90
2023-03-15T07:09:19.336Z,15.18
2023-03-15T07:10:19.337Z,15.44
2023-03-15T07:11:18.636Z,15.69
2023-03-15T07:12:18.624Z,15.95
2023-03-15T07:13:18.644Z,16.19
2023-03-15T07:14:19.295Z,16.47
2023-03-15T07:15:19.278Z,16.74
2023-03-15T07:16:19.360Z,16.97
2023-03-15T07:17:19.237Z,17.21
2023-03-15T07:18:18.547Z,17.42
2023-03-15T07:19:19.249Z,17.60
2023-03-15T07:20:19.229Z,17.76
2023-03-15T07:21:19.209Z,17.93
2023-03-15T07:22:19.179Z,18.13
2023-03-15T07:23:18.500Z,18.32
2023-03-15T07:24:18.521Z,18.49
2023-03-15T07:25:19.170Z,18.63
2023-03-15T07:26:19.162Z,18.78
2023-03-15T07:27:19.608Z,18.94
2023-03-15T07:28:18.441Z,19.10
2023-03-15T07:29:19.124Z,19.24
2023-03-15T07:30:19.117Z,19.37
2023-03-15T07:31:19.119Z,19.51
2023-03-15T07:32:19.120Z,19.66
2023-03-15T07:33:19.201Z,19.79
2023-03-15T07:34:18.374Z,19.95
2023-03-15T07:35:19.095Z,20.12
2023-03-15T07:36:18.375Z,20.30
2023-03-15T07:37:19.031Z,20.47
2023-03-15T07:38:18.379Z,20.63
2023-03-15T07:39:19.051Z,20.79
2023-03-15T07:40:18.345Z,20.85
2023-03-15T07:41:18.999Z,21.03
2023-03-15T07:42:18.313Z,21.21
2023-03-15T07:43:18.972Z,21.43
2023-03-15T07:44:18.965Z,21.62
2023-03-15T07:45:18.239Z,21.75
2023-03-15T07:46:18.433Z,21.87
2023-03-15T07:47:18.269Z,22.00
2023-03-15T07:48:18.911Z,22.08
2023-03-15T07:49:18.911Z,22.14
2023-03-15T07:50:18.909Z,22.21
2023-03-15T07:51:18.185Z,22.29
2023-03-15T07:52:18.853Z,22.39
2023-03-15T07:53:18.859Z,22.51
2023-03-15T07:54:18.863Z,22.65
2023-03-15T07:55:18.876Z,22.78
2023-03-15T07:56:19.788Z,22.87
2023-03-15T07:57:18.805Z,23.05
2023-03-15T07:58:20.289Z,23.23
2023-03-15T07:59:18.801Z,23.36
2023-03-15T08:00:18.802Z,23.46
2023-03-15T08:01:18.785Z,23.50
2023-03-15T08:02:18.773Z,23.53
2023-03-15T08:03:18.102Z,22.98
2023-03-15T08:04:18.061Z,23.23
2023-03-15T08:05:18.740Z,23.34
2023-03-15T08:06:18.726Z,23.33
2023-03-15T08:07:18.062Z,23.46
2023-03-15T08:08:18.697Z,23.64
2023-03-15T08:09:18.686Z,23.83
2023-03-15T08:10:18.707Z,24.00
2023-03-15T08:11:18.671Z,24.14
2023-03-15T08:12:18.646Z,24.28
2023-03-15T08:13:18.665Z,24.43
2023-03-15T08:14:18.636Z,24.59
2023-03-15T08:15:17.930Z,24.71
2023-03-15T08:16:18.662Z,24.92
2023-03-15T08:17:18.580Z,25.07
2023-03-15T08:18:18.589Z,25.20
2023-03-15T08:19:17.888Z,25.34
2023-03-15T08:20:18.568Z,24.88
2023-03-15T08:21:18.562Z,25.07
2023-03-15T08:22:18.544Z,25.27
2023-03-15T08:23:17.875Z,25.44
2023-03-15T08:24:18.543Z,25.63
2023-03-15T08:25:18.520Z,25.78
2023-03-15T08:26:18.513Z,25.95
2023-03-15T08:27:18.482Z,26.11
2023-03-15T08:28:18.492Z,26.26
2023-03-15T08:29:17.830Z,26.46
2023-03-15T08:30:18.481Z,26.62
2023-03-15T08:31:18.490Z,26.76
2023-03-15T08:32:18.534Z,26.81
2023-03-15T08:33:18.413Z,26.89
2023-03-15T08:34:17.746Z,26.98
2023-03-15T08:35:18.418Z,27.04
2023-03-15T08:36:18.448Z,27.10
2023-03-15T08:37:18.394Z,27.14
2023-03-15T08:38:18.355Z,27.14
2023-03-15T08:39:18.365Z,27.17
2023-03-15T08:40:18.356Z,27.19
2023-03-15T08:41:18.369Z,27.19
2023-03-15T08:42:17.647Z,27.17
2023-03-15T08:43:17.710Z,27.15
2023-03-15T08:44:18.312Z,27.14
2023-03-15T08:45:18.312Z,27.16
2023-03-15T08:46:18.346Z,27.11
2023-03-15T08:47:18.280Z,27.04
2023-03-15T08:48:18.247Z,27.00
2023-03-15T08:49:18.256Z,26.99
2023-03-15T08:50:18.256Z,26.88
2023-03-15T08:51:18.227Z,26.86
2023-03-15T08:52:18.257Z,26.86
2023-03-15T08:53:18.193Z,26.87
2023-03-15T08:54:18.196Z,26.91
2023-03-15T08:55:18.207Z,26.89
2023-03-15T08:56:17.500Z,26.91
2023-03-15T08:57:18.168Z,26.96
2023-03-15T08:58:18.138Z,27.03
2023-03-15T08:59:25.546Z,27.06
2023-03-15T09:00:19.877Z,27.07
2023-03-15T09:01:17.438Z,27.12
2023-03-15T09:02:17.532Z,26.99
2023-03-15T09:03:18.079Z,26.99
2023-03-15T09:04:18.170Z,27.08
2023-03-15T09:05:18.088Z,25.68
2023-03-15T09:06:18.079Z,25.61
2023-03-15T09:07:18.059Z,25.91
2023-03-15T09:08:18.029Z,25.40
2023-03-15T09:09:18.031Z,24.17
2023-03-15T09:10:17.353Z,23.32
2023-03-15T09:11:18.022Z,23.62
2023-03-15T09:12:17.328Z,22.93
2023-03-15T09:13:17.971Z,23.40
2023-03-15T09:14:17.312Z,23.16
2023-03-15T09:15:17.960Z,22.75
2023-03-15T09:16:17.984Z,23.22
2023-03-15T09:17:17.945Z,23.51
2023-03-15T09:18:18.722Z,23.72
2023-03-15T09:19:17.242Z,23.69
2023-03-15T09:20:17.913Z,23.57
2023-03-15T09:21:17.228Z,23.79
2023-03-15T09:22:29.208Z,23.91
2023-03-15T09:23:19.661Z,23.98
2023-03-15T09:24:18.114Z,24.05
2023-03-15T09:25:17.176Z,24.04
2023-03-15T09:26:17.858Z,24.03
2023-03-15T09:27:17.859Z,24.07
2023-03-15T09:28:17.812Z,24.15
2023-03-15T09:29:17.835Z,24.24
2023-03-15T09:30:17.183Z,23.48
2023-03-15T09:31:17.862Z,23.06
2023-03-15T09:32:17.122Z,23.13
2023-03-15T09:33:17.775Z,22.42
2023-03-15T09:34:17.772Z,22.54
2023-03-15T09:35:17.754Z,22.60
2023-03-15T09:36:17.749Z,22.66
2023-03-15T09:37:17.735Z,22.69
2023-03-15T09:38:17.074Z,22.74
2023-03-15T09:39:17.716Z,22.68
2023-03-15T09:40:17.705Z,22.58
2023-03-15T09:41:17.698Z,22.21
2023-03-15T09:42:17.700Z,22.32
2023-03-15T09:43:17.650Z,22.20
2023-03-15T09:44:17.000Z,22.27
2023-03-15T09:45:16.947Z,22.30
2023-03-15T09:46:17.681Z,22.33
2023-03-15T09:47:17.628Z,22.37
2023-03-15T09:48:17.641Z,22.35
2023-03-15T09:49:16.941Z,22.19
2023-03-15T09:50:17.607Z,21.82
2023-03-15T09:51:17.584Z,21.37
2023-03-15T09:52:16.905Z,21.19
2023-03-15T09:53:16.909Z,21.25
2023-03-15T09:54:19.182Z,21.17
2023-03-15T09:55:17.543Z,21.23
2023-03-15T09:56:17.533Z,21.28
2023-03-15T09:57:17.523Z,21.33
2023-03-15T09:58:17.500Z,21.13
2023-03-15T09:59:17.502Z,20.51
2023-03-15T10:00:17.484Z,20.05
2023-03-15T10:01:17.524Z,20.08
2023-03-15T10:02:17.464Z,20.15
2023-03-15T10:03:17.533Z,20.22
2023-03-15T10:04:16.773Z,20.31
2023-03-15T10:05:17.434Z,20.42
2023-03-15T10:06:16.748Z,20.52
2023-03-15T10:07:17.418Z,20.66
2023-03-15T10:08:17.395Z,20.79
2023-03-15T10:09:17.424Z,20.90
2023-03-15T10:10:17.434Z,21.02
2023-03-15T10:11:17.377Z,21.14
2023-03-15T10:12:17.362Z,21.24
2023-03-15T10:13:16.708Z,21.36
2023-03-15T10:14:17.349Z,21.47
2023-03-15T10:15:17.328Z,21.62
2023-03-15T10:16:17.391Z,21.73
2023-03-15T10:17:17.310Z,21.90
2023-03-15T10:18:17.287Z,21.93
2023-03-15T10:19:16.641Z,21.98
2023-03-15T10:20:17.540Z,22.02
2023-03-15T10:21:17.512Z,22.07
2023-03-15T10:22:17.514Z,22.06
2023-03-15T10:23:17.580Z,21.92
2023-03-15T10:24:17.235Z,21.80
2023-03-15T10:25:17.498Z,21.79
2023-03-15T10:26:17.213Z,21.78
2023-03-15T10:27:17.493Z,21.68
2023-03-15T10:28:17.487Z,21.50
2023-03-15T10:29:17.472Z,21.48
2023-03-15T10:30:17.171Z,21.35
2023-03-15T10:31:22.217Z,21.19
2023-03-15T10:32:17.455Z,21.19
2023-03-15T10:33:17.111Z,21.14
2023-03-15T10:34:17.139Z,20.67
2023-03-15T10:35:17.108Z,20.06
2023-03-15T10:36:17.164Z,19.52
2023-03-15T10:37:17.371Z,19.00
2023-03-15T10:38:17.064Z,18.53
2023-03-15T10:39:17.351Z,18.10
2023-03-15T10:40:17.081Z,17.79
2023-03-15T10:41:23.450Z,17.66
2023-03-15T10:42:18.821Z,17.59
2023-03-15T10:43:17.000Z,17.53
2023-03-15T10:44:17.273Z,17.45
2023-03-15T10:45:17.295Z,17.38
2023-03-15T10:46:17.282Z,17.29
2023-03-15T10:47:23.528Z,17.20
2023-03-15T10:48:18.331Z,17.01
2023-03-15T10:49:17.243Z,16.80
2023-03-15T10:50:17.213Z,16.60
2023-03-15T10:51:17.202Z,16.43
2023-03-15T10:52:17.221Z,16.26
2023-03-15T10:53:17.220Z,16.19
2023-03-15T10:54:17.162Z,16.13
2023-03-15T10:55:16.905Z,16.11
2023-03-15T10:56:17.172Z,16.02
2023-03-15T10:57:16.863Z,15.91
2023-03-15T10:58:17.139Z,15.72
2023-03-15T10:59:17.127Z,15.59
2023-03-15T11:00:16.832Z,15.47
2023-03-15T11:01:16.184Z,15.36
2023-03-15T11:02:16.830Z,15.25
2023-03-15T11:03:16.851Z,15.14
2023-03-15T11:04:17.072Z,15.00
2023-03-15T11:05:17.099Z,14.87
2023-03-15T11:06:17.047Z,14.84
2023-03-15T11:07:17.031Z,14.77
2023-03-15T11:08:17.009Z,14.71
2023-03-15T11:09:17.030Z,14.66
2023-03-15T11:10:16.725Z,14.63
2023-03-15T11:11:17.014Z,14.61
2023-03-15T11:12:18.278Z,14.56
2023-03-15T11:13:16.706Z,14.52
2023-03-15T11:14:16.985Z,14.48
2023-03-15T11:15:16.989Z,14.44
2023-03-15T11:16:16.953Z,14.42
2023-03-15T11:17:16.974Z,14.41
2023-03-15T11:18:16.888Z,14.42
2023-03-15T11:19:16.646Z,14.40
2023-03-15T11:20:16.644Z,14.35
2023-03-15T11:21:16.600Z,14.36
2023-03-15T11:22:16.900Z,14.35
2023-03-15T11:23:17.829Z,14.32
2023-03-15T11:24:16.585Z,14.29
2023-03-15T11:25:16.841Z,14.31
2023-03-15T11:26:29.468Z,14.35
2023-03-15T11:27:17.539Z,14.34
2023-03-15T11:28:17.831Z,14.35
2023-03-15T11:29:16.812Z,14.38
2023-03-15T11:30:16.520Z,14.43
2023-03-15T11:31:16.555Z,14.45
2023-03-15T11:32:16.480Z,14.45
2023-03-15T11:33:17.730Z,14.43
2023-03-15T11:34:16.471Z,14.41
2023-03-15T11:35:16.451Z,14.41
2023-03-15T11:36:16.442Z,14.39
2023-03-15T11:37:16.424Z,14.40
2023-03-15T11:38:16.064Z,14.38
2023-03-15T11:39:16.396Z,14.38
2023-03-15T11:40:17.266Z,14.39
2023-03-15T11:41:15.746Z,14.44
2023-03-15T11:42:16.385Z,14.49
2023-03-15T11:43:15.726Z,14.58
2023-03-15T11:44:16.339Z,14.66
2023-03-15T11:45:15.690Z,14.74
2023-03-15T11:46:16.337Z,14.75
2023-03-15T11:47:16.335Z,14.69
2023-03-15T11:48:16.315Z,14.67
2023-03-15T11:49:16.279Z,14.66
2023-03-15T11:50:15.615Z,14.58
2023-03-15T11:51:16.367Z,14.53
2023-03-15T11:52:16.269Z,14.48
2023-03-15T11:53:16.272Z,14.42
2023-03-15T11:54:16.242Z,14.38
2023-03-15T11:55:16.240Z,14.34
2023-03-15T11:56:16.219Z,14.32
2023-03-15T11:57:15.559Z,14.33
2023-03-15T11:58:16.200Z,14.36
2023-03-15T11:59:16.178Z,14.35
2023-03-15T12:00:16.301Z,14.29
2023-03-15T12:01:15.488Z,14.27
2023-03-15T12:02:16.189Z,14.33
2023-03-15T12:03:16.165Z,14.33
2023-03-15T12:04:16.124Z,14.28
2023-03-15T12:05:18.360Z,14.24
2023-03-15T12:06:16.119Z,14.19
2023-03-15T12:07:16.111Z,14.12
2023-03-15T12:08:16.093Z,14.03
2023-03-15T12:09:16.064Z,13.94
2023-03-15T12:10:16.071Z,13.82
2023-03-15T12:11:16.062Z,13.76
2023-03-15T12:12:16.057Z,13.71
2023-03-15T12:13:16.032Z,13.63
2023-03-15T12:14:16.030Z,13.59
2023-03-15T12:15:16.119Z,13.56
2023-03-15T12:16:16.055Z,13.54
2023-03-15T12:17:15.344Z,13.50
2023-03-15T12:18:15.985Z,13.54
2023-03-15T12:19:15.959Z,13.56
2023-03-15T12:20:15.397Z,13.58
2023-03-15T12:21:15.954Z,13.58
2023-03-15T12:22:15.948Z,13.58
2023-03-15T12:23:15.935Z,13.55
2023-03-15T12:24:15.910Z,13.55
2023-03-15T12:25:15.216Z,13.58
2023-03-15T12:26:15.245Z,13.61
2023-03-15T12:27:15.933Z,13.67
2023-03-15T12:28:15.876Z,13.66
2023-03-15T12:29:15.846Z,13.66
2023-03-15T12:30:15.857Z,13.66
2023-03-15T12:31:15.242Z,13.65
2023-03-15T12:32:15.159Z,13.64
2023-03-15T12:33:17.089Z,13.63
2023-03-15T12:34:17.344Z,13.62
2023-03-15T12:35:15.616Z,13.57
2023-03-15T12:36:15.130Z,13.50
2023-03-15T12:37:15.783Z,13.50
2023-03-15T12:38:15.784Z,13.52
2023-03-15T12:39:15.773Z,13.54
2023-03-15T12:40:15.216Z,13.59
2023-03-15T12:41:15.735Z,13.64
2023-03-15T12:42:15.752Z,13.71
2023-03-15T12:43:15.707Z,13.78
2023-03-15T12:44:15.054Z,13.86
2023-03-15T12:45:15.782Z,13.94
2023-03-15T12:46:15.717Z,14.00
2023-03-15T12:47:14.986Z,14.04
2023-03-15T12:48:15.646Z,14.06
2023-03-15T12:49:15.001Z,14.06
2023-03-15T12:50:15.606Z,14.06
2023-03-15T12:51:15.619Z,14.05
2023-03-15T12:52:15.606Z,14.04
2023-03-15T12:53:15.595Z,14.03
2023-03-15T12:54:14.905Z,14.03
2023-03-15T12:55:14.905Z,14.05
2023-03-15T12:56:15.568Z,14.06
2023-03-15T12:57:15.580Z,14.07
2023-03-15T12:58:15.550Z,14.07
2023-03-15T12:59:15.543Z,14.07
2023-03-15T13:00:14.890Z,14.05
2023-03-15T13:01:15.577Z,14.02
2023-03-15T13:02:15.505Z,14.00
2023-03-15T13:03:15.565Z,14.01
2023-03-15T13:04:15.470Z,14.00
2023-03-15T13:05:15.449Z,13.98
2023-03-15T13:06:14.848Z,13.99